Time;durP1;ratioP1;P1;durP2;ratioP2;P2;SDS_P1;SDS_P2;PMS_P1;PMS_P2;Temp;Humidity;BMP_temperature;BMP_pressure;BME280_temperature;BME280_humidity;BME280_pressure;Samples;Min_cycle;Max_cycle;Signal;HPM_P1;HPM_P2
2021/04/08 00:01:46;;;;;;;15.02;5.30;;;3.30;98.30;;;;;;5098163;23;20213;-80
2021/04/08 00:03:47;;;;;;;8.95;4.10;;;3.40;98.30;;;;;;5090913;23;20237;-79
2021/04/08 00:05:49;;;;;;;29.52;15.10;;;3.40;98.30;;;;;;5099857;23;20207;-79
2021/04/08 00:07:51;;;;;;;27.05;13.80;;;3.40;98.30;;;;;;5091229;23;20207;-79
2021/04/08 00:09:55;;;;;;;18.77;6.68;;;3.50;98.30;;;;;;5098355;23;20200;-79
2021/04/08 00:11:57;;;;;;;10.32;4.82;;;3.50;98.30;;;;;;5099251;23;20218;-79
2021/04/08 00:13:59;;;;;;;15.68;5.15;;;3.50;98.30;;;;;;5099261;23;20217;-79
2021/04/08 00:16:01;;;;;;;14.60;4.78;;;3.40;98.30;;;;;;5091120;23;20213;-79
2021/04/08 00:18:04;;;;;;;6.90;4.28;;;3.40;98.30;;;;;;5090784;23;20231;-79
2021/04/08 00:20:09;;;;;;;20.13;5.53;;;3.40;98.30;;;;;;5089800;23;20590;-79
2021/04/08 00:22:11;;;;;;;13.70;3.97;;;3.30;98.30;;;;;;5098469;23;20214;-79
2021/04/08 00:24:13;;;;;;;10.70;3.90;;;3.40;98.30;;;;;;5090473;23;20211;-79
2021/04/08 00:26:15;;;;;;;14.40;5.07;;;3.40;98.30;;;;;;5091440;23;20315;-79
2021/04/08 00:28:17;;;;;;;44.95;17.98;;;3.40;98.30;;;;;;5092634;23;20210;-79
2021/04/08 00:30:20;;;;;;;20.27;8.20;;;3.40;98.30;;;;;;5100513;23;20230;-79
2021/04/08 00:32:22;;;;;;;35.83;8.30;;;3.30;98.30;;;;;;5092779;23;20211;-80
2021/04/08 00:34:24;;;;;;;17.42;5.25;;;3.30;98.30;;;;;;5092750;23;20207;-79
2021/04/08 00:36:26;;;;;;;15.75;4.95;;;3.30;98.30;;;;;;5091920;23;20210;-79
2021/04/08 00:38:28;;;;;;;15.23;4.85;;;3.30;98.30;;;;;;5092132;23;20272;-80
2021/04/08 00:40:30;;;;;;;14.88;4.43;;;3.30;98.30;;;;;;5091330;23;20218;-79
2021/04/08 00:42:33;;;;;;;21.35;4.47;;;3.30;98.30;;;;;;5091805;23;20203;-79
2021/04/08 00:44:35;;;;;;;13.27;4.38;;;3.30;98.30;;;;;;5092171;23;20207;-80
2021/04/08 00:46:37;;;;;;;18.83;5.22;;;3.40;98.30;;;;;;5100259;23;20211;-80
2021/04/08 00:48:39;;;;;;;13.15;4.45;;;3.40;98.30;;;;;;5092400;23;20208;-80
2021/04/08 00:50:41;;;;;;;13.93;5.25;;;3.30;98.30;;;;;;5091822;23;20662;-79
2021/04/08 00:52:45;;;;;;;15.75;4.57;;;3.30;98.30;;;;;;5091771;23;20267;-80
2021/04/08 00:54:47;;;;;;;13.93;5.40;;;3.30;98.30;;;;;;5101017;23;20663;-79
2021/04/08 00:56:49;;;;;;;20.92;4.32;;;3.40;98.30;;;;;;5100486;23;20214;-80
2021/04/08 00:58:52;;;;;;;10.05;4.68;;;3.40;98.30;;;;;;5091376;23;20208;-80
2021/04/08 01:00:54;;;;;;;14.18;4.88;;;3.40;98.30;;;;;;5096819;23;20210;-80
2021/04/08 01:02:57;;;;;;;19.83;5.18;;;3.50;98.30;;;;;;5116687;23;20230;-80
2021/04/08 01:05:00;;;;;;;19.40;5.68;;;3.50;98.30;;;;;;5116961;23;20211;-80
2021/04/08 01:07:02;;;;;;;18.88;4.85;;;3.50;98.30;;;;;;5116921;23;20689;-80
2021/04/08 01:09:05;;;;;;;13.35;5.22;;;3.50;98.30;;;;;;5116617;23;20209;-80
2021/04/08 01:11:07;;;;;;;16.80;5.97;;;3.50;98.30;;;;;;5116714;23;20203;-80
2021/04/08 01:13:12;;;;;;;10.48;4.50;;;3.50;98.30;;;;;;5116738;23;20214;-81
2021/04/08 01:15:15;;;;;;;10.63;3.95;;;3.40;98.30;;;;;;5125312;23;20214;-80
2021/04/08 01:17:23;;;;;;;15.75;4.78;;;3.50;98.30;;;;;;5124451;23;20218;-81
2021/04/08 01:19:55;;;;;;;9.15;4.00;;;3.50;98.30;;;;;;5124264;23;20213;-80
2021/04/08 01:22:06;;;;;;;16.92;4.65;;;3.50;98.30;;;;;;5109070;23;20218;-81
2021/04/08 01:24:38;;;;;;;17.30;5.03;;;3.40;98.30;;;;;;5123957;23;20211;-81
2021/04/08 01:27:25;;;;;;;16.17;4.65;;;3.40;98.30;;;;;;5116738;23;20285;-80
2021/04/08 01:29:40;;;;;;;11.40;3.63;;;3.40;98.30;;;;;;5123723;23;20202;-80
2021/04/08 01:31:44;;;;;;;14.63;5.07;;;3.40;98.30;;;;;;5124118;23;20198;-80
2021/04/08 01:33:50;;;;;;;14.80;4.40;;;3.30;98.30;;;;;;5115869;23;20202;-80
2021/04/08 01:35:53;;;;;;;16.40;4.03;;;3.30;98.30;;;;;;5116375;23;20218;-80
2021/04/08 01:38:04;;;;;;;10.00;3.92;;;3.20;98.30;;;;;;5115737;23;20207;-80
2021/04/08 01:40:08;;;;;;;8.20;3.67;;;3.20;98.30;;;;;;5115265;23;20230;-81
2021/04/08 01:42:13;;;;;;;14.13;4.68;;;3.20;98.30;;;;;;5123515;23;20214;-80
2021/04/08 01:44:18;;;;;;;10.90;4.03;;;3.20;98.30;;;;;;5124438;23;20203;-80
2021/04/08 01:46:23;;;;;;;11.98;3.60;;;3.20;98.30;;;;;;5124378;23;20209;-80
2021/04/08 01:48:27;;;;;;;12.68;4.55;;;3.30;98.30;;;;;;5116330;23;20361;-80
2021/04/08 01:50:30;;;;;;;12.30;4.25;;;3.30;98.30;;;;;;5123590;23;20198;-79
2021/04/08 01:52:34;;;;;;;14.52;4.03;;;3.30;98.30;;;;;;5124437;23;20594;-80
2021/04/08 01:54:38;;;;;;;11.70;4.80;;;3.30;98.30;;;;;;5116551;23;20752;-79
2021/04/08 01:56:42;;;;;;;12.00;4.13;;;3.30;98.30;;;;;;5116388;23;20210;-80
2021/04/08 01:58:45;;;;;;;18.65;4.70;;;3.30;98.30;;;;;;5124516;23;20265;-80
2021/04/08 02:00:48;;;;;;;13.88;4.30;;;3.30;98.30;;;;;;5115341;23;20274;-81
2021/04/08 02:02:54;;;;;;;13.15;4.80;;;3.30;98.30;;;;;;5124999;23;20211;-80
2021/04/08 02:04:58;;;;;;;10.43;4.60;;;3.20;98.30;;;;;;5124752;23;20735;-80
2021/04/08 02:07:01;;;;;;;14.05;4.10;;;3.20;98.30;;;;;;5116451;23;20210;-81
2021/04/08 02:09:05;;;;;;;13.07;4.18;;;3.20;98.30;;;;;;5115799;23;20209;-80
2021/04/08 02:11:09;;;;;;;18.13;4.65;;;3.20;98.30;;;;;;5116538;23;20198;-80
2021/04/08 02:13:18;;;;;;;16.10;4.50;;;3.20;98.30;;;;;;5124639;23;20202;-80
2021/04/08 02:15:21;;;;;;;15.70;4.80;;;3.20;98.30;;;;;;5124580;23;20207;-80
2021/04/08 02:17:24;;;;;;;10.43;4.45;;;3.10;98.30;;;;;;5124386;23;20207;-81
2021/04/08 02:19:28;;;;;;;10.70;4.30;;;3.10;98.30;;;;;;5116078;23;20301;-81
2021/04/08 02:21:31;;;;;;;12.02;3.88;;;3.10;98.30;;;;;;5116997;23;20281;-81
2021/04/08 02:23:36;;;;;;;12.80;4.50;;;3.10;98.30;;;;;;5124649;23;20202;-80
2021/04/08 02:25:40;;;;;;;11.95;5.82;;;3.10;98.30;;;;;;5116097;23;20586;-80
2021/04/08 02:27:44;;;;;;;17.60;5.38;;;3.10;98.30;;;;;;5114862;23;20214;-80
2021/04/08 02:29:47;;;;;;;9.65;3.97;;;3.10;98.30;;;;;;5113516;23;20286;-80
2021/04/08 02:31:50;;;;;;;14.35;3.88;;;3.10;98.30;;;;;;5114025;23;20199;-80
2021/04/08 02:33:53;;;;;;;13.77;4.40;;;3.00;98.30;;;;;;5124394;23;20210;-80
2021/04/08 02:35:56;;;;;;;16.13;4.25;;;3.00;98.30;;;;;;5116246;23;20582;-80
2021/04/08 02:37:59;;;;;;;16.02;4.10;;;3.00;98.30;;;;;;5116028;23;20265;-80
2021/04/08 02:40:01;;;;;;;12.48;4.22;;;3.00;98.30;;;;;;5115845;23;20737;-80
2021/04/08 02:42:03;;;;;;;10.13;3.45;;;3.00;98.30;;;;;;5115850;23;20214;-80
2021/04/08 02:44:06;;;;;;;14.18;5.53;;;2.90;98.30;;;;;;5115318;23;20207;-79
2021/04/08 02:46:07;;;;;;;16.40;6.53;;;2.90;98.30;;;;;;5115834;23;20206;-79
2021/04/08 02:48:11;;;;;;;19.50;10.30;;;2.90;98.30;;;;;;5117757;23;20202;-78
2021/04/08 02:50:14;;;;;;;14.63;4.00;;;2.80;98.30;;;;;;5115702;23;20203;-79
2021/04/08 02:52:19;;;;;;;18.48;5.05;;;2.80;98.30;;;;;;5123821;23;20281;-79
2021/04/08 02:54:30;;;;;;;16.38;4.22;;;2.80;98.30;;;;;;5124982;23;20237;-79
2021/04/08 02:56:43;;;;;;;12.60;4.10;;;2.80;98.30;;;;;;5129884;23;20206;-79
2021/04/08 02:58:47;;;;;;;12.00;4.45;;;2.90;98.30;;;;;;5127487;23;20732;-79
2021/04/08 03:00:53;;;;;;;21.83;4.22;;;2.90;98.30;;;;;;5117892;23;20537;-79
2021/04/08 03:03:00;;;;;;;12.50;4.63;;;2.90;98.30;;;;;;5126882;23;20669;-79
2021/04/08 03:05:04;;;;;;;9.68;3.70;;;3.00;98.30;;;;;;5126833;23;20214;-79
2021/04/08 03:07:07;;;;;;;13.40;4.75;;;3.00;98.30;;;;;;5119070;23;20210;-79
2021/04/08 03:09:10;;;;;;;15.93;6.38;;;3.00;98.30;;;;;;5126529;23;20209;-79
2021/04/08 03:11:14;;;;;;;10.98;4.28;;;2.90;98.30;;;;;;5126791;23;20748;-80
2021/04/08 03:13:17;;;;;;;15.90;4.70;;;3.00;98.30;;;;;;5115970;23;20213;-80
2021/04/08 03:15:24;;;;;;;9.63;3.70;;;3.00;98.30;;;;;;5116381;23;20209;-80
2021/04/08 03:17:30;;;;;;;9.48;3.65;;;3.00;98.30;;;;;;5115803;23;20762;-80
2021/04/08 03:19:35;;;;;;;12.60;4.30;;;3.00;98.30;;;;;;5123524;23;20547;-79
2021/04/08 03:21:38;;;;;;;15.77;4.15;;;3.00;98.30;;;;;;5116213;23;20210;-80
2021/04/08 03:23:40;;;;;;;13.23;4.50;;;3.00;98.30;;;;;;5115337;23;20210;-79
2021/04/08 03:25:49;;;;;;;12.32;3.95;;;3.10;98.30;;;;;;5123483;23;20649;-79
2021/04/08 03:27:52;;;;;;;10.98;4.10;;;3.10;98.30;;;;;;5115096;23;20203;-79
2021/04/08 03:29:55;;;;;;;14.13;4.45;;;3.20;98.30;;;;;;5114531;23;20207;-79
2021/04/08 03:31:57;;;;;;;11.20;4.00;;;3.20;98.30;;;;;;5114882;23;20562;-80
2021/04/08 03:34:01;;;;;;;12.85;3.97;;;3.20;98.30;;;;;;5114750;23;20234;-79
2021/04/08 03:36:04;;;;;;;13.65;4.93;;;3.20;98.30;;;;;;5116529;23;20207;-80
2021/04/08 03:38:07;;;;;;;9.38;3.65;;;3.20;98.30;;;;;;5115794;23;20206;-82
2021/04/08 03:40:10;;;;;;;10.82;4.18;;;3.20;98.30;;;;;;5115374;23;20203;-79
2021/04/08 03:42:14;;;;;;;8.98;3.75;;;3.30;98.30;;;;;;5115602;23;20210;-79
2021/04/08 03:44:17;;;;;;;9.23;3.60;;;3.20;98.30;;;;;;5115973;23;20577;-79
2021/04/08 03:46:19;;;;;;;12.00;4.50;;;3.30;98.30;;;;;;5123893;23;20265;-79
2021/04/08 03:48:22;;;;;;;15.55;4.43;;;3.30;98.30;;;;;;5115993;23;20222;-79
2021/04/08 03:50:24;;;;;;;14.23;4.35;;;3.30;98.30;;;;;;5124401;23;20203;-79
2021/04/08 03:52:27;;;;;;;11.20;3.70;;;3.30;98.30;;;;;;5117924;23;20256;-79
2021/04/08 03:54:30;;;;;;;10.23;3.63;;;3.30;98.30;;;;;;5119463;23;20207;-79
2021/04/08 03:56:32;;;;;;;11.63;3.85;;;3.30;98.30;;;;;;5116529;23;20214;-79
2021/04/08 03:58:35;;;;;;;13.90;3.60;;;3.30;98.30;;;;;;5124680;23;20229;-78
2021/04/08 04:00:39;;;;;;;13.93;7.60;;;3.20;98.30;;;;;;5123199;23;20673;-78
2021/04/08 04:02:44;;;;;;;17.20;7.20;;;3.30;98.30;;;;;;5117149;23;20249;-78
2021/04/08 04:04:49;;;;;;;16.27;3.88;;;3.20;98.30;;;;;;5124922;23;20269;-79
2021/04/08 04:06:52;;;;;;;12.52;6.05;;;3.20;98.30;;;;;;5116247;23;20206;-79
2021/04/08 04:08:54;;;;;;;10.30;4.07;;;3.20;98.30;;;;;;5116392;23;20254;-79
2021/04/08 04:10:57;;;;;;;14.88;3.63;;;3.10;98.30;;;;;;5117050;23;20206;-79
2021/04/08 04:12:58;;;;;;;8.82;3.35;;;3.10;98.30;;;;;;5125667;23;20213;-79
2021/04/08 04:15:03;;;;;;;9.30;3.63;;;3.10;98.30;;;;;;5125879;23;20276;-79
2021/04/08 04:17:24;;;;;;;13.82;3.30;;;3.10;98.30;;;;;;5125766;23;20305;-80
2021/04/08 04:19:26;;;;;;;11.23;3.63;;;3.10;98.30;;;;;;5125431;23;20594;-79
2021/04/08 04:21:28;;;;;;;9.95;3.65;;;3.00;98.30;;;;;;5117722;23;20302;-79
2021/04/08 04:23:30;;;;;;;6.18;3.28;;;3.00;98.30;;;;;;5117963;23;20206;-79
2021/04/08 04:25:32;;;;;;;12.02;3.90;;;2.90;98.30;;;;;;5117434;23;20207;-80
2021/04/08 04:27:34;;;;;;;7.90;3.00;;;2.90;98.30;;;;;;5125735;23;20270;-79
2021/04/08 04:29:36;;;;;;;9.20;3.40;;;2.90;98.30;;;;;;5124469;23;20213;-79
2021/04/08 04:31:39;;;;;;;8.48;3.47;;;2.90;98.30;;;;;;5115952;23;20203;-79
2021/04/08 04:33:42;;;;;;;14.10;3.45;;;2.80;98.30;;;;;;5116941;23;20207;-82
2021/04/08 04:35:44;;;;;;;11.48;3.28;;;2.80;98.30;;;;;;5126274;23;20203;-80
2021/04/08 04:37:46;;;;;;;15.65;4.35;;;2.80;98.30;;;;;;5117326;23;20206;-80
2021/04/08 04:39:49;;;;;;;12.13;4.22;;;2.80;98.30;;;;;;5116192;23;20730;-79
2021/04/08 04:41:51;;;;;;;9.05;4.07;;;2.70;98.30;;;;;;5117246;23;20529;-80
2021/04/08 04:43:53;;;;;;;8.18;3.10;;;2.70;98.30;;;;;;5117114;23;20215;-80
2021/04/08 04:45:55;;;;;;;14.52;5.28;;;2.70;98.30;;;;;;5117446;23;20206;-80
2021/04/08 04:47:57;;;;;;;9.00;3.90;;;2.70;98.30;;;;;;5117140;23;20533;-79
2021/04/08 04:49:59;;;;;;;8.82;3.15;;;2.70;98.30;;;;;;5116575;23;20674;-79
2021/04/08 04:52:01;;;;;;;11.68;3.70;;;2.70;98.30;;;;;;5116591;23;20222;-81
2021/04/08 04:54:04;;;;;;;11.32;4.75;;;2.80;98.30;;;;;;5116879;23;20700;-80
2021/04/08 04:56:06;;;;;;;6.50;3.35;;;2.80;98.30;;;;;;5116312;23;20203;-80
2021/04/08 04:58:08;;;;;;;15.27;4.10;;;2.90;98.30;;;;;;5117306;23;20534;-80
2021/04/08 05:00:11;;;;;;;9.32;3.63;;;2.90;98.30;;;;;;5116176;23;20217;-80
2021/04/08 05:02:13;;;;;;;7.32;4.05;;;3.00;98.30;;;;;;5126675;23;20215;-81
2021/04/08 05:04:15;;;;;;;13.40;4.10;;;3.10;98.30;;;;;;5119615;23;20207;-81
2021/04/08 05:06:19;;;;;;;8.75;3.30;;;3.10;98.30;;;;;;5128152;23;20261;-80
2021/04/08 05:08:21;;;;;;;12.48;3.72;;;3.20;98.30;;;;;;5129100;23;20230;-80
2021/04/08 05:10:23;;;;;;;7.53;3.40;;;3.20;98.30;;;;;;5119162;23;20212;-80
2021/04/08 05:12:25;;;;;;;7.60;3.78;;;3.20;98.30;;;;;;5121045;23;20232;-80
2021/04/08 05:14:27;;;;;;;8.07;4.00;;;3.20;98.30;;;;;;5129480;23;20258;-81
2021/04/08 05:16:29;;;;;;;10.75;4.00;;;3.20;98.30;;;;;;5131740;23;20666;-81
2021/04/08 05:18:31;;;;;;;6.55;2.95;;;3.30;98.30;;;;;;5118824;23;20213;-80
2021/04/08 05:20:32;;;;;;;11.40;3.72;;;3.30;98.30;;;;;;5117876;23;20692;-80
2021/04/08 05:22:38;;;;;;;10.02;3.42;;;3.30;98.30;;;;;;5119805;23;20210;-80
2021/04/08 05:24:40;;;;;;;8.75;3.90;;;3.40;98.30;;;;;;5119234;23;20570;-82
2021/04/08 05:26:42;;;;;;;8.27;3.55;;;3.50;98.30;;;;;;5119190;23;20885;-82
2021/04/08 05:28:44;;;;;;;4.70;2.70;;;3.50;98.30;;;;;;5119053;23;20227;-80
2021/04/08 05:30:46;;;;;;;10.32;3.30;;;3.50;98.30;;;;;;5119669;23;20519;-80
2021/04/08 05:32:47;;;;;;;13.02;3.17;;;3.60;98.30;;;;;;5121061;23;20286;-81
2021/04/08 05:34:51;;;;;;;7.18;3.17;;;3.60;98.30;;;;;;5123517;23;20237;-81
2021/04/08 05:36:53;;;;;;;14.23;3.45;;;3.50;98.30;;;;;;5122997;23;20242;-80
2021/04/08 05:38:57;;;;;;;11.90;3.05;;;3.60;98.30;;;;;;5132378;23;20568;-81
2021/04/08 05:40:58;;;;;;;11.57;3.85;;;3.60;98.30;;;;;;5123542;23;20244;-81
2021/04/08 05:43:00;;;;;;;11.60;3.30;;;3.60;98.30;;;;;;5122922;23;20206;-81
2021/04/08 05:45:03;;;;;;;10.15;3.17;;;3.50;98.30;;;;;;5121535;23;20818;-81
2021/04/08 05:47:04;;;;;;;7.22;3.20;;;3.50;98.30;;;;;;5121805;23;20213;-80
2021/04/08 05:49:06;;;;;;;13.20;3.35;;;3.50;98.30;;;;;;5119229;23;20207;-80
2021/04/08 05:51:10;;;;;;;12.38;4.05;;;3.50;98.30;;;;;;5118372;23;20207;-80
2021/04/08 05:53:13;;;;;;;10.93;3.55;;;3.60;98.30;;;;;;5118472;23;20273;-80
2021/04/08 05:55:16;;;;;;;13.43;3.20;;;3.60;98.30;;;;;;5118858;23;20541;-80
2021/04/08 05:57:18;;;;;;;9.48;3.67;;;3.50;98.30;;;;;;5118945;23;20230;-81
2021/04/08 05:59:20;;;;;;;7.55;3.20;;;3.50;98.30;;;;;;5117783;23;20286;-80
2021/04/08 06:01:22;;;;;;;8.70;3.25;;;3.40;98.30;;;;;;5118604;23;20230;-80
2021/04/08 06:03:30;;;;;;;7.70;3.67;;;3.40;98.30;;;;;;5119924;23;20284;-80
2021/04/08 06:05:34;;;;;;;9.27;3.58;;;3.30;98.30;;;;;;5119666;23;20257;-81
2021/04/08 06:07:36;;;;;;;13.65;3.70;;;3.20;98.30;;;;;;5119292;23;20531;-81
2021/04/08 06:09:38;;;;;;;7.18;3.80;;;3.20;98.30;;;;;;5119626;23;20206;-81
2021/04/08 06:11:41;;;;;;;21.73;5.25;;;3.10;98.30;;;;;;5118857;23;20198;-81
2021/04/08 06:13:43;;;;;;;10.13;3.70;;;3.10;98.30;;;;;;5118690;23;20202;-81
2021/04/08 06:15:45;;;;;;;14.35;4.07;;;3.10;98.30;;;;;;5127024;23;20531;-81
2021/04/08 06:17:47;;;;;;;11.88;3.65;;;3.10;98.30;;;;;;5118238;23;20217;-81
2021/04/08 06:19:49;;;;;;;10.05;3.80;;;3.10;98.30;;;;;;5126858;23;20203;-81
2021/04/08 06:21:53;;;;;;;7.50;4.00;;;3.10;98.30;;;;;;5118003;23;20674;-81
2021/04/08 06:23:55;;;;;;;11.77;6.32;;;3.00;98.30;;;;;;5118298;23;20230;-83
2021/04/08 06:25:58;;;;;;;6.10;3.05;;;3.00;98.30;;;;;;5126330;23;20289;-82
2021/04/08 06:28:01;;;;;;;9.63;4.55;;;3.10;98.30;;;;;;5118130;23;20210;-82
2021/04/08 06:30:04;;;;;;;9.77;3.85;;;3.10;98.30;;;;;;5116724;23;20214;-83
2021/04/08 06:32:06;;;;;;;10.95;4.75;;;3.20;98.30;;;;;;5117968;23;20209;-82
2021/04/08 06:34:08;;;;;;;8.95;4.00;;;3.20;98.30;;;;;;5118053;23;20207;-82
2021/04/08 06:36:32;;;;;;;11.32;3.95;;;3.20;98.30;;;;;;5118096;23;20206;-82
2021/04/08 06:38:34;;;;;;;10.43;3.50;;;3.30;98.30;;;;;;5125991;23;20203;-82
2021/04/08 06:40:36;;;;;;;9.68;3.53;;;3.40;98.30;;;;;;5125771;23;20202;-82
2021/04/08 06:42:41;;;;;;;9.05;3.60;;;3.40;98.30;;;;;;5117253;23;20214;-80
2021/04/08 06:44:48;;;;;;;10.40;4.50;;;3.40;98.30;;;;;;5117215;23;20214;-80
2021/04/08 06:46:54;;;;;;;10.60;3.78;;;3.40;98.30;;;;;;5117766;23;20841;-80
2021/04/08 06:49:01;;;;;;;13.82;4.35;;;3.40;98.30;;;;;;5117797;23;20209;-80
2021/04/08 06:51:04;;;;;;;13.38;4.78;;;3.50;98.30;;;;;;5125928;23;20285;-80
2021/04/08 06:53:07;;;;;;;10.52;4.20;;;3.60;98.30;;;;;;5118302;23;20206;-80
2021/04/08 06:55:10;;;;;;;11.15;5.03;;;3.60;98.30;;;;;;5117244;23;20206;-80
2021/04/08 06:57:16;;;;;;;11.77;3.42;;;3.70;98.30;;;;;;5117132;23;20206;-80
2021/04/08 06:59:17;;;;;;;12.60;6.18;;;3.80;98.30;;;;;;5116345;23;20212;-80
2021/04/08 07:01:22;;;;;;;9.70;3.75;;;3.90;98.30;;;;;;5114715;22;20210;-78
2021/04/08 07:03:24;;;;;;;9.13;4.43;;;4.00;98.30;;;;;;5112908;23;20210;-79
2021/04/08 07:05:26;;;;;;;10.20;3.90;;;4.10;98.30;;;;;;5113507;23;20207;-78
2021/04/08 07:07:28;;;;;;;7.05;3.95;;;4.20;98.30;;;;;;5112956;23;20213;-78
2021/04/08 07:09:30;;;;;;;17.25;4.65;;;4.20;98.30;;;;;;5113273;23;20791;-78
2021/04/08 07:11:32;;;;;;;9.65;3.20;;;4.10;98.30;;;;;;5114321;23;20666;-79
2021/04/08 07:13:34;;;;;;;7.18;3.40;;;4.00;98.30;;;;;;5114452;23;20206;-78
2021/04/08 07:15:36;;;;;;;9.20;4.13;;;4.00;98.30;;;;;;5122814;23;20218;-78
2021/04/08 07:17:41;;;;;;;12.77;5.45;;;4.00;98.30;;;;;;5114529;23;20203;-78
2021/04/08 07:19:44;;;;;;;9.75;4.50;;;4.00;98.30;;;;;;5114118;23;20260;-79
2021/04/08 07:21:46;;;;;;;13.10;5.45;;;4.10;98.30;;;;;;5113725;23;20214;-78
2021/04/08 07:24:06;;;;;;;8.90;3.35;;;4.20;98.30;;;;;;5114579;23;20207;-79
2021/04/08 07:26:10;;;;;;;13.35;4.93;;;4.40;98.30;;;;;;5100063;23;20230;-79
2021/04/08 07:28:32;;;;;;;9.65;3.58;;;4.60;98.30;;;;;;5122626;23;20208;-79
2021/04/08 07:30:34;;;;;;;5.72;3.30;;;4.80;98.30;;;;;;5113692;23;20207;-79
2021/04/08 07:32:38;;;;;;;11.63;4.00;;;5.00;98.30;;;;;;5114213;23;20210;-78
2021/04/08 07:34:44;;;;;;;13.98;3.25;;;5.00;98.30;;;;;;5114871;23;20210;-79
2021/04/08 07:36:54;;;;;;;22.77;10.27;;;5.00;98.30;;;;;;5116143;23;20210;-79
2021/04/08 07:38:57;;;;;;;24.13;11.98;;;5.00;98.30;;;;;;5115469;23;20317;-79
2021/04/08 07:41:02;;;;;;;26.73;14.23;;;5.10;98.30;;;;;;5115874;23;20532;-79
2021/04/08 07:43:12;;;;;;;13.00;3.90;;;5.10;98.30;;;;;;5115888;23;21091;-78
2021/04/08 07:45:24;;;;;;;6.43;2.83;;;5.20;98.30;;;;;;5115643;23;20464;-78
2021/04/08 07:47:28;;;;;;;5.68;2.78;;;4.80;98.30;;;;;;5115701;23;20465;-78
2021/04/08 07:49:31;;;;;;;6.43;2.63;;;4.60;98.30;;;;;;5115523;23;20203;-78
2021/04/08 07:51:35;;;;;;;8.73;3.15;;;4.40;98.30;;;;;;5123957;23;20234;-78
2021/04/08 07:53:37;;;;;;;9.05;3.55;;;4.30;98.30;;;;;;5115945;23;20203;-78
2021/04/08 07:55:39;;;;;;;11.75;3.40;;;4.30;98.30;;;;;;5116203;23;20241;-78
2021/04/08 07:57:56;;;;;;;9.88;3.40;;;4.50;98.30;;;;;;5115808;23;20212;-78
2021/04/08 08:00:17;;;;;;;13.00;5.13;;;4.60;98.30;;;;;;5115423;23;20663;-78
2021/04/08 08:02:23;;;;;;;8.38;4.80;;;4.80;98.30;;;;;;5123391;23;20265;-78
2021/04/08 08:04:26;;;;;;;10.13;3.78;;;4.80;98.30;;;;;;5115587;23;20225;-78
2021/04/08 08:06:36;;;;;;;7.95;3.40;;;5.00;98.30;;;;;;5115741;23;20685;-78
2021/04/08 08:08:41;;;;;;;8.95;4.43;;;5.10;98.30;;;;;;5115721;23;20579;-79
2021/04/08 08:10:56;;;;;;;15.27;3.35;;;5.10;98.30;;;;;;5123012;23;20261;-78
2021/04/08 08:12:58;;;;;;;9.13;4.13;;;5.20;98.30;;;;;;5123700;23;20221;-78
2021/04/08 08:15:21;;;;;;;6.03;3.00;;;5.40;98.30;;;;;;5115646;23;20532;-79
2021/04/08 08:17:35;;;;;;;6.20;2.90;;;5.40;98.30;;;;;;5115661;23;20460;-78
2021/04/08 08:19:38;;;;;;;13.47;6.30;;;5.10;98.30;;;;;;5115510;23;20457;-79
2021/04/08 08:21:41;;;;;;;8.73;4.47;;;4.90;98.30;;;;;;5115432;23;20492;-79
2021/04/08 08:23:44;;;;;;;9.57;3.67;;;5.00;98.30;;;;;;5115717;23;20674;-80
2021/04/08 08:25:47;;;;;;;13.60;3.75;;;4.80;98.30;;;;;;5116752;23;20696;-78
2021/04/08 08:27:52;;;;;;;7.50;3.15;;;4.70;98.30;;;;;;5114816;23;20590;-78
2021/04/08 08:29:57;;;;;;;6.40;3.20;;;4.70;98.30;;;;;;5123295;23;20226;-78
2021/04/08 08:32:00;;;;;;;4.13;2.42;;;4.70;98.30;;;;;;5123686;23;20725;-79
2021/04/08 08:34:06;;;;;;;11.38;4.30;;;4.70;98.30;;;;;;5115428;23;20213;-79
2021/04/08 08:36:08;;;;;;;10.70;3.40;;;4.80;98.30;;;;;;5115800;23;20207;-78
2021/04/08 08:38:14;;;;;;;18.98;4.35;;;4.90;98.30;;;;;;5115372;23;20203;-78
2021/04/08 08:40:16;;;;;;;9.93;4.47;;;4.90;98.30;;;;;;5115260;23;20206;-78
2021/04/08 08:42:20;;;;;;;7.47;3.22;;;5.10;98.30;;;;;;5115437;23;20298;-79
2021/04/08 08:44:22;;;;;;;10.52;3.17;;;5.20;98.30;;;;;;5115554;23;20261;-78
2021/04/08 08:46:26;;;;;;;7.05;3.63;;;5.30;98.30;;;;;;5123727;23;20571;-79
2021/04/08 08:48:28;;;;;;;11.23;4.47;;;5.20;98.30;;;;;;5123856;23;20261;-78
2021/04/08 08:50:31;;;;;;;5.57;3.00;;;5.30;98.30;;;;;;5114996;23;20207;-78
2021/04/08 08:52:36;;;;;;;12.32;3.65;;;5.40;98.30;;;;;;5115399;23;20457;-78
2021/04/08 08:54:39;;;;;;;9.43;3.60;;;5.50;98.30;;;;;;5123944;23;20202;-78
2021/04/08 08:56:41;;;;;;;8.47;3.20;;;5.60;98.30;;;;;;5123813;23;20496;-78
2021/04/08 08:58:43;;;;;;;11.37;4.13;;;5.70;98.30;;;;;;5123965;23;20446;-79
2021/04/08 09:00:45;;;;;;;12.73;3.60;;;5.50;98.30;;;;;;5123002;23;20446;-79
2021/04/08 09:02:47;;;;;;;11.50;4.07;;;5.40;98.30;;;;;;5114786;23;20463;-78
2021/04/08 09:04:50;;;;;;;8.20;2.73;;;5.30;98.30;;;;;;5115549;23;20542;-78
2021/04/08 09:06:53;;;;;;;7.67;3.50;;;5.30;98.30;;;;;;5115215;23;20537;-78
2021/04/08 09:08:59;;;;;;;11.43;3.40;;;5.30;98.30;;;;;;5114606;23;20458;-78
2021/04/08 09:11:01;;;;;;;6.40;3.17;;;5.30;98.30;;;;;;5115473;23;20454;-78
2021/04/08 09:13:05;;;;;;;7.83;3.50;;;5.30;98.30;;;;;;5115213;23;20450;-79
2021/04/08 09:15:09;;;;;;;9.13;3.20;;;5.30;98.30;;;;;;5114527;23;20460;-78
2021/04/08 09:17:42;;;;;;;5.97;2.87;;;5.20;98.30;;;;;;5115273;23;20478;-78
2021/04/08 09:19:44;;;;;;;6.70;3.30;;;5.30;98.30;;;;;;5112976;23;20464;-79
2021/04/08 09:21:48;;;;;;;5.30;3.07;;;5.40;98.30;;;;;;5123194;23;20209;-78
2021/04/08 09:24:06;;;;;;;9.97;3.63;;;5.40;98.30;;;;;;5123486;23;20450;-78
2021/04/08 09:26:09;;;;;;;8.87;3.37;;;5.50;98.30;;;;;;5115369;23;20502;-78
2021/04/08 09:28:13;;;;;;;12.53;4.47;;;5.50;98.30;;;;;;5123158;23;20450;-78
2021/04/08 09:30:42;;;;;;;13.50;3.67;;;5.50;98.30;;;;;;5114715;23;20461;-78
2021/04/08 09:32:47;;;;;;;8.83;3.40;;;5.40;98.30;;;;;;5122984;23;20430;-79
2021/04/08 09:35:12;;;;;;;6.87;3.70;;;5.40;98.30;;;;;;5123677;23;20446;-79
2021/04/08 09:37:14;;;;;;;8.45;3.30;;;5.40;98.30;;;;;;5114684;23;20454;-78
2021/04/08 09:39:32;;;;;;;6.50;3.07;;;5.40;98.30;;;;;;5114466;23;20206;-78
2021/04/08 09:41:41;;;;;;;6.23;2.83;;;5.40;98.30;;;;;;5114613;23;21099;-79
2021/04/08 09:43:45;;;;;;;4.47;3.00;;;5.30;98.30;;;;;;5115124;23;20824;-78
2021/04/08 09:45:56;;;;;;;14.35;4.50;;;5.30;98.30;;;;;;5115024;23;20482;-78
2021/04/08 09:48:06;;;;;;;8.73;3.55;;;5.30;98.30;;;;;;5114895;23;20202;-78
2021/04/08 09:50:09;;;;;;;6.63;3.10;;;5.40;98.30;;;;;;5114371;23;20213;-78
2021/04/08 09:52:13;;;;;;;7.57;2.92;;;5.40;98.30;;;;;;5114732;23;20486;-78
2021/04/08 09:54:16;;;;;;;6.23;2.80;;;5.40;98.30;;;;;;5114721;23;20219;-79
2021/04/08 09:56:17;;;;;;;3.70;2.50;;;5.50;98.30;;;;;;5114814;23;20788;-79
2021/04/08 09:58:22;;;;;;;6.23;2.50;;;5.50;98.30;;;;;;5114879;23;20953;-78
2021/04/08 10:00:24;;;;;;;6.50;2.65;;;5.30;98.30;;;;;;5123267;23;20457;-78
2021/04/08 10:02:27;;;;;;;4.30;2.90;;;5.00;98.30;;;;;;5124240;23;20213;-78
2021/04/08 10:04:30;;;;;;;6.53;2.72;;;5.00;98.30;;;;;;5116429;23;20974;-78
2021/04/08 10:06:32;;;;;;;3.75;2.50;;;5.10;98.30;;;;;;5115893;23;20211;-78
2021/04/08 10:08:37;;;;;;;5.00;3.23;;;5.20;98.30;;;;;;5116201;23;20368;-78
2021/04/08 10:10:42;;;;;;;9.70;5.28;;;5.30;98.30;;;;;;5115875;23;20450;-78
2021/04/08 10:12:44;;;;;;;10.80;3.42;;;5.30;98.30;;;;;;5115738;23;20203;-78
2021/04/08 10:14:46;;;;;;;5.87;2.70;;;5.40;98.30;;;;;;5116466;23;20272;-78
2021/04/08 10:17:02;;;;;;;8.87;2.90;;;5.40;98.30;;;;;;5124213;23;21169;-78
2021/04/08 10:19:04;;;;;;;4.53;1.90;;;5.30;98.30;;;;;;5123772;23;20983;-79
2021/04/08 10:21:10;;;;;;;5.78;2.40;;;5.10;98.30;;;;;;5115728;23;20457;-78
2021/04/08 10:23:13;;;;;;;4.25;1.92;;;4.90;98.30;;;;;;5115843;23;20582;-78
2021/04/08 10:25:15;;;;;;;4.38;2.17;;;4.90;98.30;;;;;;5115706;23;20216;-78
2021/04/08 10:27:19;;;;;;;4.00;1.83;;;5.00;98.30;;;;;;5115243;23;20214;-78
2021/04/08 10:29:32;;;;;;;3.47;2.00;;;5.20;98.30;;;;;;5115299;23;20460;-78
2021/04/08 10:31:36;;;;;;;5.10;2.17;;;5.20;98.30;;;;;;5115692;23;20530;-78
2021/04/08 10:33:38;;;;;;;5.23;2.43;;;5.40;98.30;;;;;;5115902;23;20450;-78
2021/04/08 10:35:40;;;;;;;5.57;2.10;;;5.80;98.30;;;;;;5115922;23;21076;-78
2021/04/08 10:37:42;;;;;;;2.80;2.17;;;5.90;98.30;;;;;;5115624;23;20493;-78
2021/04/08 10:39:44;;;;;;;8.53;2.23;;;6.00;98.30;;;;;;5122999;23;20480;-78
2021/04/08 10:41:57;;;;;;;42.00;20.17;;;6.30;98.30;;;;;;5115504;23;20483;-78
2021/04/08 10:44:23;;;;;;;3.43;2.13;;;6.60;98.30;;;;;;5115297;23;20445;-79
2021/04/08 10:46:25;;;;;;;5.60;2.60;;;6.90;98.30;;;;;;5115893;23;20461;-78
2021/04/08 10:48:30;;;;;;;5.20;2.67;;;6.80;98.30;;;;;;5115697;23;20467;-78
2021/04/08 10:50:31;;;;;;;4.47;2.47;;;7.00;98.30;;;;;;5114883;23;20871;-78
2021/04/08 10:52:35;;;;;;;10.43;2.10;;;7.10;98.30;;;;;;5123716;23;20521;-78